This is the latest recevied weather packets stored in our database for station/object EA5AER-5. If no packets are shown the sender has not sent any weather packets the latest 10 day(s).
| Time | Temp. | Humidity | Pressure | Rain* | Wind** | Luminosity | Snow |
|---|---|---|---|---|---|---|---|
| 1777370370 | 18.33° C | 51% | 1012.7 hPa | 0 mm | - | 441 W/m² | - |
| 1777369190 | 18.33° C | 51% | 1012.7 hPa | 0 mm | - | 441 W/m² | - |
| 1777368018 | 18.33° C | 51% | 1012.7 hPa | 0 mm | - | 441 W/m² | - |
| 1777366830 | 18.33° C | 51% | 1012.7 hPa | 0 mm | - | 441 W/m² | - |
| 1777365545 | 17.78° C | 48% | 1012.5 hPa | 0 mm | - | 394 W/m² | - |
| 1777364428 | 17.78° C | 46% | 1012.7 hPa | 0 mm | - | 432 W/m² | - |
| 1777363184 | 17.78° C | 46% | 1012.7 hPa | 0 mm | - | 432 W/m² | - |
| 1777361981 | 17.22° C | 42% | 1012.6 hPa | 0 mm | - | 366 W/m² | - |
| 1777360780 | 17.22° C | 42% | 1012.6 hPa | 0 mm | - | 366 W/m² | - |
| 1777359629 | 16.11° C | 18% | 1012.3 hPa | 0 mm | - | 213 W/m² | - |
| 1777358369 | 16.11° C | 18% | 1012.3 hPa | 0 mm | - | 213 W/m² | - |
| 1777357112 | 15.56° C | 10% | 1012.3 hPa | 0 mm | - | 144 W/m² | - |
| 1777355921 | 15° C | 3% | 1012.2 hPa | 0 mm | - | 58 W/m² | - |
| 1777354618 | 15° C | 3% | 1012.1 hPa | 0 mm | - | 19 W/m² | - |
| 1777353410 | 15° C | 3% | 1011.8 hPa | 0 mm | - | 0 W/m² | - |
| 1777352241 | 15° C | 3% | 1011.8 hPa | 0 mm | - | 0 W/m² | - |
| 1777351094 | 15° C | 3% | 1011.8 hPa | 0 mm | - | 0 W/m² | - |
| 1777349852 | 15° C | 5% | 1011.9 hPa | 0 mm | - | 0 W/m² | - |
| 1777348532 | 15° C | 6% | 1011.9 hPa | 0 mm | - | 0 W/m² | - |
| 1777347233 | 15° C | 14% | 1012.3 hPa | 0 mm | - | 0 W/m² | - |
| 1777346147 | 15° C | 17% | 1012.3 hPa | 0 mm | - | 0 W/m² | - |
| 1777344931 | 15° C | 24% | 1012.3 hPa | 0 mm | - | 0 W/m² | - |
| 1777343660 | 15.56° C | 37% | 1012.6 hPa | 0 mm | - | 0 W/m² | - |
| 1777342453 | 15.56° C | 37% | 1012.6 hPa | 0 mm | - | 0 W/m² | - |
| 1777341260 | 15.56° C | 44% | 1013 hPa | 0 mm | - | 0 W/m² | - |
* Rain latest hour (hover to see other rain measurements)
** Current wind speed in m/s (hover to see current wind gust speed)